Terminal Aerodrome Forecast
Issued by NWS

Current Version | Previous Version | Text Only | Print | Product List | Glossary On
Versions: 1 2 3 4 5 6 7 8 9 10 11 12 13 14 15 16 17 18 19 20 21 22 23
300
FTUS45 KREV 121721
TAFCXP
TAF
KCXP 121721Z 1218/1318 VRB04KT P6SM BKN250
     FM122100 08008KT P6SM FEW150 BKN250
     FM130100 VRB03KT P6SM SCT150 OVC200=

USA.gov is the U.S. government's official web portal to all federal, state and local government web resources and services.